sensor_id;sensor_type;location;lat;lon;timestamp;pressure;altitude;pressure_sealevel;temperature;humidity
62072;BME280;48031;48.542;13.232;2022-10-16T00:01:19;97358.22;;;14.16;100.00
62072;BME280;48031;48.542;13.232;2022-10-16T00:05:21;97359.91;;;14.02;100.00
62072;BME280;48031;48.542;13.232;2022-10-16T00:09:22;97343.78;;;14.11;100.00
62072;BME280;48031;48.542;13.232;2022-10-16T00:13:24;97364.78;;;14.05;100.00
62072;BME280;48031;48.542;13.232;2022-10-16T00:17:26;97370.81;;;14.02;100.00
62072;BME280;48031;48.542;13.232;2022-10-16T00:21:29;97378.44;;;14.26;100.00
62072;BME280;48031;48.542;13.232;2022-10-16T00:25:58;97397.81;;;14.39;100.00
62072;BME280;48031;48.542;13.232;2022-10-16T00:30:00;97394.28;;;14.03;100.00
62072;BME280;48031;48.542;13.232;2022-10-16T00:34:02;97396.47;;;13.96;100.00
62072;BME280;48031;48.542;13.232;2022-10-16T00:38:04;97387.44;;;14.16;100.00
62072;BME280;48031;48.542;13.232;2022-10-16T00:42:06;97398.38;;;14.26;100.00
62072;BME280;48031;48.542;13.232;2022-10-16T00:46:20;97389.91;;;14.12;100.00
62072;BME280;48031;48.542;13.232;2022-10-16T00:50:30;97391.81;;;14.07;100.00
62072;BME280;48031;48.542;13.232;2022-10-16T00:54:33;97395.66;;;13.86;100.00
62072;BME280;48031;48.542;13.232;2022-10-16T00:58:35;97393.75;;;13.76;100.00
62072;BME280;48031;48.542;13.232;2022-10-16T01:02:37;97403.03;;;13.70;100.00
62072;BME280;48031;48.542;13.232;2022-10-16T01:07:03;97397.28;;;13.71;100.00
62072;BME280;48031;48.542;13.232;2022-10-16T01:28:20;97416.09;;;13.48;100.00
62072;BME280;48031;48.542;13.232;2022-10-16T01:36:50;97415.00;;;13.54;100.00
62072;BME280;48031;48.542;13.232;2022-10-16T01:41:06;97430.03;;;13.87;100.00
62072;BME280;48031;48.542;13.232;2022-10-16T01:45:11;97421.00;;;13.66;100.00
62072;BME280;48031;48.542;13.232;2022-10-16T01:49:15;97413.66;;;13.92;100.00
62072;BME280;48031;48.542;13.232;2022-10-16T01:53:20;97416.09;;;13.68;100.00
62072;BME280;48031;48.542;13.232;2022-10-16T01:57:24;97414.47;;;13.62;100.00
62072;BME280;48031;48.542;13.232;2022-10-16T02:01:29;97423.19;;;13.64;100.00
62072;BME280;48031;48.542;13.232;2022-10-16T02:05:53;97429.75;;;13.63;100.00
62072;BME280;48031;48.542;13.232;2022-10-16T02:09:55;97427.25;;;13.46;100.00
62072;BME280;48031;48.542;13.232;2022-10-16T02:14:05;97422.63;;;13.52;100.00
62072;BME280;48031;48.542;13.232;2022-10-16T02:18:09;97423.44;;;13.42;100.00
62072;BME280;48031;48.542;13.232;2022-10-16T02:22:26;97419.56;;;13.28;100.00
62072;BME280;48031;48.542;13.232;2022-10-16T02:26:41;97420.13;;;13.20;100.00
62072;BME280;48031;48.542;13.232;2022-10-16T02:30:55;97420.63;;;13.12;100.00
62072;BME280;48031;48.542;13.232;2022-10-16T02:34:59;97423.88;;;13.09;100.00
62072;BME280;48031;48.542;13.232;2022-10-16T02:39:02;97426.28;;;13.05;100.00
62072;BME280;48031;48.542;13.232;2022-10-16T02:43:05;97423.28;;;13.02;100.00
62072;BME280;48031;48.542;13.232;2022-10-16T02:47:07;97426.09;;;13.17;100.00
62072;BME280;48031;48.542;13.232;2022-10-16T02:51:08;97431.84;;;13.20;100.00
62072;BME280;48031;48.542;13.232;2022-10-16T02:55:10;97432.38;;;13.27;100.00
62072;BME280;48031;48.542;13.232;2022-10-16T02:59:12;97437.00;;;13.22;100.00
62072;BME280;48031;48.542;13.232;2022-10-16T03:03:14;97441.09;;;13.19;100.00
62072;BME280;48031;48.542;13.232;2022-10-16T03:07:15;97462.38;;;13.32;100.00
62072;BME280;48031;48.542;13.232;2022-10-16T03:11:17;97465.66;;;13.35;100.00
62072;BME280;48031;48.542;13.232;2022-10-16T03:15:19;97476.31;;;13.41;100.00
62072;BME280;48031;48.542;13.232;2022-10-16T03:19:21;97472.78;;;13.41;100.00
62072;BME280;48031;48.542;13.232;2022-10-16T03:23:23;97474.13;;;13.43;100.00
62072;BME280;48031;48.542;13.232;2022-10-16T03:27:25;97481.25;;;13.54;100.00
62072;BME280;48031;48.542;13.232;2022-10-16T03:31:29;97455.88;;;13.49;100.00
62072;BME280;48031;48.542;13.232;2022-10-16T03:35:31;97444.38;;;13.26;100.00
62072;BME280;48031;48.542;13.232;2022-10-16T03:39:34;97463.75;;;13.25;100.00
62072;BME280;48031;48.542;13.232;2022-10-16T03:43:36;97463.44;;;13.26;100.00
62072;BME280;48031;48.542;13.232;2022-10-16T03:47:38;97467.69;;;13.02;100.00
62072;BME280;48031;48.542;13.232;2022-10-16T03:51:40;97463.78;;;12.83;100.00
62072;BME280;48031;48.542;13.232;2022-10-16T03:55:42;97459.41;;;12.77;100.00
62072;BME280;48031;48.542;13.232;2022-10-16T03:59:45;97466.72;;;12.71;100.00
62072;BME280;48031;48.542;13.232;2022-10-16T04:03:46;97469.16;;;12.68;100.00
62072;BME280;48031;48.542;13.232;2022-10-16T04:07:48;97459.13;;;12.73;100.00
62072;BME280;48031;48.542;13.232;2022-10-16T04:11:50;97469.38;;;12.61;100.00
62072;BME280;48031;48.542;13.232;2022-10-16T04:15:52;97472.44;;;12.65;100.00
62072;BME280;48031;48.542;13.232;2022-10-16T04:19:53;97469.59;;;12.49;100.00
62072;BME280;48031;48.542;13.232;2022-10-16T04:23:55;97479.41;;;12.50;100.00
62072;BME280;48031;48.542;13.232;2022-10-16T04:27:57;97483.22;;;12.55;100.00
62072;BME280;48031;48.542;13.232;2022-10-16T04:31:59;97490.16;;;12.72;100.00
62072;BME280;48031;48.542;13.232;2022-10-16T04:36:01;97493.97;;;12.76;100.00
62072;BME280;48031;48.542;13.232;2022-10-16T04:40:04;97501.22;;;13.03;100.00
62072;BME280;48031;48.542;13.232;2022-10-16T04:44:06;97496.78;;;12.86;100.00
62072;BME280;48031;48.542;13.232;2022-10-16T04:48:08;97503.81;;;12.82;100.00
62072;BME280;48031;48.542;13.232;2022-10-16T04:52:09;97498.28;;;12.67;100.00
62072;BME280;48031;48.542;13.232;2022-10-16T04:56:11;97488.69;;;12.60;100.00
62072;BME280;48031;48.542;13.232;2022-10-16T05:00:13;97497.97;;;12.59;100.00
62072;BME280;48031;48.542;13.232;2022-10-16T05:04:15;97505.66;;;12.72;100.00
62072;BME280;48031;48.542;13.232;2022-10-16T05:08:17;97509.81;;;12.79;100.00
62072;BME280;48031;48.542;13.232;2022-10-16T05:12:18;97515.09;;;12.96;100.00
62072;BME280;48031;48.542;13.232;2022-10-16T05:16:20;97508.53;;;12.92;100.00
62072;BME280;48031;48.542;13.232;2022-10-16T05:20:23;97509.00;;;12.84;100.00
62072;BME280;48031;48.542;13.232;2022-10-16T05:24:25;97511.84;;;13.04;100.00
62072;BME280;48031;48.542;13.232;2022-10-16T05:28:28;97542.03;;;12.93;100.00
62072;BME280;48031;48.542;13.232;2022-10-16T05:32:32;97530.03;;;12.93;100.00
62072;BME280;48031;48.542;13.232;2022-10-16T05:36:34;97541.25;;;12.97;100.00
62072;BME280;48031;48.542;13.232;2022-10-16T05:40:36;97549.81;;;13.16;100.00
62072;BME280;48031;48.542;13.232;2022-10-16T05:44:37;97542.81;;;13.30;100.00
62072;BME280;48031;48.542;13.232;2022-10-16T05:48:39;97554.34;;;13.47;100.00
62072;BME280;48031;48.542;13.232;2022-10-16T05:52:41;97556.28;;;13.62;100.00
62072;BME280;48031;48.542;13.232;2022-10-16T05:56:43;97558.44;;;13.55;100.00
62072;BME280;48031;48.542;13.232;2022-10-16T06:00:44;97549.19;;;13.66;100.00
62072;BME280;48031;48.542;13.232;2022-10-16T06:04:46;97549.97;;;13.46;100.00
62072;BME280;48031;48.542;13.232;2022-10-16T06:08:48;97548.16;;;13.82;100.00
62072;BME280;48031;48.542;13.232;2022-10-16T06:12:50;97550.13;;;14.07;100.00
62072;BME280;48031;48.542;13.232;2022-10-16T06:16:52;97551.22;;;14.16;100.00
62072;BME280;48031;48.542;13.232;2022-10-16T06:20:54;97555.91;;;14.36;100.00
62072;BME280;48031;48.542;13.232;2022-10-16T06:24:56;97555.06;;;14.25;100.00
62072;BME280;48031;48.542;13.232;2022-10-16T06:28:59;97569.88;;;14.60;100.00
62072;BME280;48031;48.542;13.232;2022-10-16T06:33:01;97567.94;;;14.45;100.00
62072;BME280;48031;48.542;13.232;2022-10-16T06:37:03;97576.94;;;14.50;100.00
62072;BME280;48031;48.542;13.232;2022-10-16T06:41:06;97580.50;;;14.61;100.00
62072;BME280;48031;48.542;13.232;2022-10-16T06:45:08;97584.06;;;14.56;100.00
62072;BME280;48031;48.542;13.232;2022-10-16T06:49:10;97585.94;;;14.31;100.00
62072;BME280;48031;48.542;13.232;2022-10-16T06:53:11;97582.97;;;14.47;100.00
62072;BME280;48031;48.542;13.232;2022-10-16T06:57:13;97587.84;;;14.30;100.00
62072;BME280;48031;48.542;13.232;2022-10-16T07:01:17;97593.06;;;14.42;100.00
62072;BME280;48031;48.542;13.232;2022-10-16T07:05:19;97596.09;;;14.76;100.00
62072;BME280;48031;48.542;13.232;2022-10-16T07:09:21;97613.56;;;14.60;100.00
62072;BME280;48031;48.542;13.232;2022-10-16T07:13:22;97608.00;;;15.46;100.00
62072;BME280;48031;48.542;13.232;2022-10-16T07:17:24;97609.94;;;15.35;100.00
62072;BME280;48031;48.542;13.232;2022-10-16T07:21:28;97592.03;;;15.73;100.00
62072;BME280;48031;48.542;13.232;2022-10-16T07:25:30;97609.25;;;15.78;100.00
62072;BME280;48031;48.542;13.232;2022-10-16T07:29:32;97625.78;;;15.58;100.00
62072;BME280;48031;48.542;13.232;2022-10-16T07:33:34;97624.97;;;15.37;100.00
62072;BME280;48031;48.542;13.232;2022-10-16T07:37:36;97632.03;;;15.64;100.00
62072;BME280;48031;48.542;13.232;2022-10-16T07:41:38;97645.47;;;15.40;100.00
62072;BME280;48031;48.542;13.232;2022-10-16T07:45:49;97641.63;;;15.46;100.00
62072;BME280;48031;48.542;13.232;2022-10-16T07:49:52;97637.72;;;15.77;100.00
62072;BME280;48031;48.542;13.232;2022-10-16T07:53:54;97639.09;;;16.34;100.00
62072;BME280;48031;48.542;13.232;2022-10-16T07:57:56;97646.19;;;17.95;100.00
62072;BME280;48031;48.542;13.232;2022-10-16T08:01:58;97644.22;;;17.76;100.00
62072;BME280;48031;48.542;13.232;2022-10-16T08:06:00;97645.75;;;17.64;100.00
62072;BME280;48031;48.542;13.232;2022-10-16T08:10:02;97646.50;;;17.40;100.00
62072;BME280;48031;48.542;13.232;2022-10-16T08:14:05;97647.88;;;17.72;100.00
62072;BME280;48031;48.542;13.232;2022-10-16T08:18:06;97643.88;;;17.30;100.00
62072;BME280;48031;48.542;13.232;2022-10-16T08:22:08;97653.09;;;18.16;100.00
62072;BME280;48031;48.542;13.232;2022-10-16T08:26:11;97648.94;;;18.37;100.00
62072;BME280;48031;48.542;13.232;2022-10-16T08:30:13;97653.28;;;18.62;100.00
62072;BME280;48031;48.542;13.232;2022-10-16T08:34:15;97663.81;;;18.12;100.00
62072;BME280;48031;48.542;13.232;2022-10-16T08:38:17;97675.94;;;18.11;100.00
62072;BME280;48031;48.542;13.232;2022-10-16T08:51:22;97674.13;;;19.19;100.00
62072;BME280;48031;48.542;13.232;2022-10-16T08:55:43;97680.00;;;19.45;100.00
62072;BME280;48031;48.542;13.232;2022-10-16T08:59:47;97665.19;;;20.55;96.94
62072;BME280;48031;48.542;13.232;2022-10-16T09:12:37;97672.63;;;20.91;94.32
62072;BME280;48031;48.542;13.232;2022-10-16T09:16:58;97674.66;;;20.99;93.59
62072;BME280;48031;48.542;13.232;2022-10-16T09:25:21;97683.63;;;21.80;89.84
62072;BME280;48031;48.542;13.232;2022-10-16T09:29:23;97694.41;;;21.59;91.32
62072;BME280;48031;48.542;13.232;2022-10-16T09:33:33;97705.13;;;20.44;95.15
62072;BME280;48031;48.542;13.232;2022-10-16T09:37:37;97699.78;;;24.53;78.86
62072;BME280;48031;48.542;13.232;2022-10-16T09:41:41;97690.06;;;28.48;57.31
62072;BME280;48031;48.542;13.232;2022-10-16T09:45:53;97701.75;;;22.25;88.90
62072;BME280;48031;48.542;13.232;2022-10-16T09:50:00;97693.38;;;28.85;57.16
62072;BME280;48031;48.542;13.232;2022-10-16T09:54:18;97697.88;;;30.99;47.00
62072;BME280;48031;48.542;13.232;2022-10-16T09:58:22;97703.28;;;31.71;45.80
62072;BME280;48031;48.542;13.232;2022-10-16T10:02:34;97697.16;;;31.99;42.53
62072;BME280;48031;48.542;13.232;2022-10-16T10:06:41;97698.72;;;31.93;41.24
62072;BME280;48031;48.542;13.232;2022-10-16T10:10:47;97675.25;;;34.04;38.21
62072;BME280;48031;48.542;13.232;2022-10-16T10:14:54;97691.22;;;32.45;38.58
62072;BME280;48031;48.542;13.232;2022-10-16T10:19:00;97693.50;;;33.41;37.55
62072;BME280;48031;48.542;13.232;2022-10-16T10:23:21;97680.34;;;35.51;34.54
62072;BME280;48031;48.542;13.232;2022-10-16T10:27:32;97679.19;;;35.49;33.58
62072;BME280;48031;48.542;13.232;2022-10-16T10:36:36;97674.88;;;34.84;33.33
62072;BME280;48031;48.542;13.232;2022-10-16T10:41:17;97671.25;;;34.51;34.67
62072;BME280;48031;48.542;13.232;2022-10-16T10:45:44;97669.94;;;37.81;28.90
62072;BME280;48031;48.542;13.232;2022-10-16T10:50:22;97659.09;;;36.64;29.42
62072;BME280;48031;48.542;13.232;2022-10-16T10:54:41;97662.31;;;37.44;28.94
62072;BME280;48031;48.542;13.232;2022-10-16T11:03:57;97670.16;;;37.67;27.92
62072;BME280;48031;48.542;13.232;2022-10-16T11:08:59;97671.25;;;36.61;29.07
62072;BME280;48031;48.542;13.232;2022-10-16T11:12:52;97665.81;;;38.43;27.63
62072;BME280;48031;48.542;13.232;2022-10-16T11:17:04;97658.06;;;38.71;27.19
62072;BME280;48031;48.542;13.232;2022-10-16T11:21:10;97665.22;;;38.55;26.76
62072;BME280;48031;48.542;13.232;2022-10-16T11:29:26;97658.78;;;38.75;25.40
62072;BME280;48031;48.542;13.232;2022-10-16T11:33:37;97662.84;;;39.20;26.35
62072;BME280;48031;48.542;13.232;2022-10-16T11:37:43;97661.63;;;39.41;25.46
62072;BME280;48031;48.542;13.232;2022-10-16T11:41:51;97656.91;;;39.34;25.22
62072;BME280;48031;48.542;13.232;2022-10-16T11:45:59;97658.16;;;39.10;26.00
62072;BME280;48031;48.542;13.232;2022-10-16T11:54:38;97648.47;;;40.06;25.31
62072;BME280;48031;48.542;13.232;2022-10-16T12:07:04;97637.19;;;42.12;23.25
62072;BME280;48031;48.542;13.232;2022-10-16T12:15:31;97641.81;;;40.94;24.09
62072;BME280;48031;48.542;13.232;2022-10-16T12:20:01;97628.41;;;40.29;23.92
62072;BME280;48031;48.542;13.232;2022-10-16T12:24:03;97622.44;;;42.51;23.38
62072;BME280;48031;48.542;13.232;2022-10-16T12:32:31;97620.81;;;41.74;22.82
62072;BME280;48031;48.542;13.232;2022-10-16T12:36:49;97619.09;;;43.34;21.24
62072;BME280;48031;48.542;13.232;2022-10-16T12:41:00;97614.81;;;42.23;21.78
62072;BME280;48031;48.542;13.232;2022-10-16T12:45:22;97621.56;;;42.29;21.16
62072;BME280;48031;48.542;13.232;2022-10-16T12:53:29;97606.72;;;43.37;21.02
62072;BME280;48031;48.542;13.232;2022-10-16T13:06:34;97630.38;;;42.82;21.40
62072;BME280;48031;48.542;13.232;2022-10-16T13:11:03;97623.16;;;43.24;19.77
62072;BME280;48031;48.542;13.232;2022-10-16T13:15:27;97636.38;;;42.37;22.07
62072;BME280;48031;48.542;13.232;2022-10-16T13:23:59;97641.47;;;32.49;35.93
62072;BME280;48031;48.542;13.232;2022-10-16T13:28:10;97634.91;;;31.57;36.20
62072;BME280;48031;48.542;13.232;2022-10-16T13:32:15;97637.59;;;31.13;39.97
62072;BME280;48031;48.542;13.232;2022-10-16T13:36:33;97639.69;;;31.19;37.73
62072;BME280;48031;48.542;13.232;2022-10-16T13:40:35;97646.81;;;30.34;41.04
62072;BME280;48031;48.542;13.232;2022-10-16T13:44:46;97642.69;;;31.04;38.63
62072;BME280;48031;48.542;13.232;2022-10-16T13:49:00;97638.25;;;33.12;34.92
62072;BME280;48031;48.542;13.232;2022-10-16T13:53:14;97636.78;;;31.42;36.37
62072;BME280;48031;48.542;13.232;2022-10-16T13:57:17;97638.00;;;29.67;41.30
62072;BME280;48031;48.542;13.232;2022-10-16T14:01:40;97632.25;;;29.80;42.47
62072;BME280;48031;48.542;13.232;2022-10-16T14:09:51;97644.47;;;30.89;39.89
62072;BME280;48031;48.542;13.232;2022-10-16T14:13:53;97650.75;;;29.88;42.63
62072;BME280;48031;48.542;13.232;2022-10-16T14:17:56;97662.94;;;29.53;41.51
62072;BME280;48031;48.542;13.232;2022-10-16T14:22:01;97659.88;;;29.62;41.86
62072;BME280;48031;48.542;13.232;2022-10-16T14:30:17;97643.84;;;29.59;42.36
62072;BME280;48031;48.542;13.232;2022-10-16T14:38:29;97657.56;;;28.08;46.74
62072;BME280;48031;48.542;13.232;2022-10-16T14:42:30;97654.97;;;28.16;44.33
62072;BME280;48031;48.542;13.232;2022-10-16T14:46:35;97662.28;;;26.20;51.59
62072;BME280;48031;48.542;13.232;2022-10-16T14:50:37;97648.63;;;29.20;44.87
62072;BME280;48031;48.542;13.232;2022-10-16T14:54:40;97662.28;;;26.93;49.71
62072;BME280;48031;48.542;13.232;2022-10-16T14:58:42;97668.50;;;25.81;54.07
62072;BME280;48031;48.542;13.232;2022-10-16T15:02:44;97666.75;;;25.43;58.69
62072;BME280;48031;48.542;13.232;2022-10-16T15:06:46;97671.47;;;25.10;56.83
62072;BME280;48031;48.542;13.232;2022-10-16T15:10:48;97672.25;;;24.69;62.26
62072;BME280;48031;48.542;13.232;2022-10-16T15:14:49;97681.69;;;24.18;65.43
62072;BME280;48031;48.542;13.232;2022-10-16T15:18:51;97680.34;;;24.15;64.99
62072;BME280;48031;48.542;13.232;2022-10-16T15:22:54;97672.94;;;24.66;61.95
62072;BME280;48031;48.542;13.232;2022-10-16T15:26:56;97667.84;;;25.51;58.49
62072;BME280;48031;48.542;13.232;2022-10-16T15:30:57;97671.88;;;25.74;56.86
62072;BME280;48031;48.542;13.232;2022-10-16T15:34:59;97680.94;;;24.67;62.35
62072;BME280;48031;48.542;13.232;2022-10-16T15:39:01;97674.00;;;24.15;64.59
62072;BME280;48031;48.542;13.232;2022-10-16T15:43:03;97678.63;;;23.47;69.04
62072;BME280;48031;48.542;13.232;2022-10-16T15:47:04;97679.13;;;23.23;70.82
62072;BME280;48031;48.542;13.232;2022-10-16T15:51:07;97683.78;;;22.71;76.48
62072;BME280;48031;48.542;13.232;2022-10-16T15:55:10;97688.00;;;22.03;83.47
62072;BME280;48031;48.542;13.232;2022-10-16T15:59:12;97694.69;;;21.80;86.33
62072;BME280;48031;48.542;13.232;2022-10-16T16:03:14;97691.28;;;21.30;89.03
62072;BME280;48031;48.542;13.232;2022-10-16T16:07:16;97691.19;;;20.99;92.15
62072;BME280;48031;48.542;13.232;2022-10-16T16:11:19;97695.25;;;20.79;91.78
62072;BME280;48031;48.542;13.232;2022-10-16T16:15:21;97703.38;;;20.48;93.60
62072;BME280;48031;48.542;13.232;2022-10-16T16:19:23;97704.09;;;20.26;95.23
62072;BME280;48031;48.542;13.232;2022-10-16T16:23:25;97700.41;;;20.04;95.83
62072;BME280;48031;48.542;13.232;2022-10-16T16:27:26;97711.84;;;19.83;96.22
62072;BME280;48031;48.542;13.232;2022-10-16T16:31:32;97719.25;;;19.69;96.09
62072;BME280;48031;48.542;13.232;2022-10-16T16:35:34;97717.88;;;19.53;96.96
62072;BME280;48031;48.542;13.232;2022-10-16T16:39:36;97723.09;;;19.55;97.01
62072;BME280;48031;48.542;13.232;2022-10-16T16:43:38;97733.53;;;19.71;95.05
62072;BME280;48031;48.542;13.232;2022-10-16T16:47:40;97738.06;;;19.48;96.34
62072;BME280;48031;48.542;13.232;2022-10-16T16:51:41;97746.41;;;19.25;97.45
62072;BME280;48031;48.542;13.232;2022-10-16T16:55:43;97745.28;;;19.07;98.46
62072;BME280;48031;48.542;13.232;2022-10-16T16:59:45;97741.50;;;18.84;98.83
62072;BME280;48031;48.542;13.232;2022-10-16T17:03:48;97760.41;;;18.72;100.00
62072;BME280;48031;48.542;13.232;2022-10-16T17:07:51;97761.19;;;18.73;100.00
62072;BME280;48031;48.542;13.232;2022-10-16T17:11:53;97772.16;;;18.78;100.00
62072;BME280;48031;48.542;13.232;2022-10-16T17:15:55;97781.72;;;18.80;100.00
62072;BME280;48031;48.542;13.232;2022-10-16T17:19:57;97778.00;;;18.71;100.00
62072;BME280;48031;48.542;13.232;2022-10-16T17:23:59;97787.81;;;18.53;100.00
62072;BME280;48031;48.542;13.232;2022-10-16T17:28:02;97791.41;;;18.54;100.00
62072;BME280;48031;48.542;13.232;2022-10-16T17:32:04;97792.16;;;18.36;100.00
62072;BME280;48031;48.542;13.232;2022-10-16T17:36:06;97793.09;;;18.26;100.00
62072;BME280;48031;48.542;13.232;2022-10-16T17:40:09;97785.31;;;18.09;100.00
62072;BME280;48031;48.542;13.232;2022-10-16T17:44:12;97791.91;;;18.08;100.00
62072;BME280;48031;48.542;13.232;2022-10-16T17:48:20;97796.47;;;17.89;100.00
62072;BME280;48031;48.542;13.232;2022-10-16T17:52:22;97802.56;;;17.86;100.00
62072;BME280;48031;48.542;13.232;2022-10-16T17:56:25;97808.00;;;17.62;100.00
62072;BME280;48031;48.542;13.232;2022-10-16T18:00:27;97818.19;;;17.52;100.00
62072;BME280;48031;48.542;13.232;2022-10-16T18:04:29;97815.72;;;17.55;100.00
62072;BME280;48031;48.542;13.232;2022-10-16T18:08:31;97813.03;;;17.45;100.00
62072;BME280;48031;48.542;13.232;2022-10-16T18:12:36;97816.63;;;17.40;100.00
62072;BME280;48031;48.542;13.232;2022-10-16T18:16:38;97819.34;;;17.45;100.00
62072;BME280;48031;48.542;13.232;2022-10-16T18:20:41;97817.63;;;17.21;100.00
62072;BME280;48031;48.542;13.232;2022-10-16T18:24:42;97825.00;;;17.25;100.00
62072;BME280;48031;48.542;13.232;2022-10-16T18:28:44;97839.28;;;17.17;100.00
62072;BME280;48031;48.542;13.232;2022-10-16T18:32:46;97830.50;;;17.20;100.00
62072;BME280;48031;48.542;13.232;2022-10-16T18:36:47;97831.34;;;17.21;100.00
62072;BME280;48031;48.542;13.232;2022-10-16T18:40:55;97835.78;;;17.07;100.00
62072;BME280;48031;48.542;13.232;2022-10-16T18:44:56;97832.81;;;17.03;100.00
62072;BME280;48031;48.542;13.232;2022-10-16T19:36:26;97874.53;;;16.95;100.00
62072;BME280;48031;48.542;13.232;2022-10-16T19:40:28;97892.16;;;16.74;100.00
62072;BME280;48031;48.542;13.232;2022-10-16T19:44:30;97890.25;;;16.74;100.00
62072;BME280;48031;48.542;13.232;2022-10-16T19:48:32;97885.63;;;16.59;100.00
62072;BME280;48031;48.542;13.232;2022-10-16T19:52:35;97895.00;;;16.38;100.00
62072;BME280;48031;48.542;13.232;2022-10-16T19:56:39;97901.56;;;16.22;100.00
62072;BME280;48031;48.542;13.232;2022-10-16T20:00:41;97902.69;;;16.16;100.00
62072;BME280;48031;48.542;13.232;2022-10-16T20:04:43;97908.97;;;16.27;100.00
62072;BME280;48031;48.542;13.232;2022-10-16T20:08:46;97910.06;;;16.31;100.00
62072;BME280;48031;48.542;13.232;2022-10-16T20:12:48;97915.81;;;16.29;100.00
62072;BME280;48031;48.542;13.232;2022-10-16T20:16:50;97912.25;;;16.23;100.00
62072;BME280;48031;48.542;13.232;2022-10-16T20:20:53;97925.13;;;16.08;100.00
62072;BME280;48031;48.542;13.232;2022-10-16T20:24:55;97916.94;;;16.03;100.00
62072;BME280;48031;48.542;13.232;2022-10-16T20:28:57;97919.66;;;15.93;100.00
62072;BME280;48031;48.542;13.232;2022-10-16T20:32:59;97927.06;;;16.02;100.00
62072;BME280;48031;48.542;13.232;2022-10-16T20:37:00;97938.84;;;15.98;100.00
62072;BME280;48031;48.542;13.232;2022-10-16T20:41:03;97941.56;;;15.98;100.00
62072;BME280;48031;48.542;13.232;2022-10-16T20:45:06;97942.66;;;15.87;100.00
62072;BME280;48031;48.542;13.232;2022-10-16T20:49:08;97936.38;;;15.81;100.00
62072;BME280;48031;48.542;13.232;2022-10-16T20:53:16;97937.72;;;15.78;100.00
62072;BME280;48031;48.542;13.232;2022-10-16T20:57:18;97941.00;;;15.70;100.00
62072;BME280;48031;48.542;13.232;2022-10-16T21:01:22;97945.09;;;15.68;100.00
62072;BME280;48031;48.542;13.232;2022-10-16T21:05:24;97936.06;;;15.62;100.00
62072;BME280;48031;48.542;13.232;2022-10-16T21:09:30;97951.13;;;15.60;100.00
62072;BME280;48031;48.542;13.232;2022-10-16T21:13:31;97940.19;;;15.65;100.00
62072;BME280;48031;48.542;13.232;2022-10-16T21:17:33;97946.44;;;15.55;100.00
62072;BME280;48031;48.542;13.232;2022-10-16T21:21:36;97950.22;;;15.49;100.00
62072;BME280;48031;48.542;13.232;2022-10-16T21:25:38;97947.22;;;15.46;100.00
62072;BME280;48031;48.542;13.232;2022-10-16T21:29:40;97951.88;;;15.50;100.00
62072;BME280;48031;48.542;13.232;2022-10-16T21:33:42;97961.69;;;15.41;100.00
62072;BME280;48031;48.542;13.232;2022-10-16T21:37:48;97965.50;;;15.35;100.00
62072;BME280;48031;48.542;13.232;2022-10-16T21:41:50;97963.28;;;15.27;100.00
62072;BME280;48031;48.542;13.232;2022-10-16T21:45:53;97965.16;;;15.21;100.00
62072;BME280;48031;48.542;13.232;2022-10-16T21:49:54;97973.09;;;15.18;100.00
62072;BME280;48031;48.542;13.232;2022-10-16T21:53:56;97962.72;;;15.20;100.00
62072;BME280;48031;48.542;13.232;2022-10-16T21:57:58;97964.34;;;15.16;100.00
62072;BME280;48031;48.542;13.232;2022-10-16T22:01:59;97963.50;;;15.10;100.00
62072;BME280;48031;48.542;13.232;2022-10-16T22:06:04;97970.34;;;15.08;100.00
62072;BME280;48031;48.542;13.232;2022-10-16T22:10:07;97970.31;;;15.03;100.00
62072;BME280;48031;48.542;13.232;2022-10-16T22:14:12;97981.75;;;14.99;100.00
62072;BME280;48031;48.542;13.232;2022-10-16T22:18:14;97980.16;;;14.98;100.00
62072;BME280;48031;48.542;13.232;2022-10-16T22:22:15;97988.03;;;14.95;100.00
62072;BME280;48031;48.542;13.232;2022-10-16T22:26:17;97983.94;;;14.92;100.00
62072;BME280;48031;48.542;13.232;2022-10-16T22:30:19;97984.97;;;14.81;100.00
62072;BME280;48031;48.542;13.232;2022-10-16T22:34:21;97985.75;;;14.77;100.00
62072;BME280;48031;48.542;13.232;2022-10-16T22:38:22;97983.34;;;14.85;100.00
62072;BME280;48031;48.542;13.232;2022-10-16T22:42:24;97976.78;;;14.81;100.00
62072;BME280;48031;48.542;13.232;2022-10-16T22:46:28;97974.00;;;14.76;100.00
62072;BME280;48031;48.542;13.232;2022-10-16T22:50:31;97972.59;;;14.69;100.00
62072;BME280;48031;48.542;13.232;2022-10-16T22:54:32;97973.44;;;14.74;100.00
62072;BME280;48031;48.542;13.232;2022-10-16T22:58:34;97964.88;;;14.61;100.00
62072;BME280;48031;48.542;13.232;2022-10-16T23:02:37;97960.88;;;14.73;100.00
62072;BME280;48031;48.542;13.232;2022-10-16T23:06:38;97963.28;;;14.65;100.00
62072;BME280;48031;48.542;13.232;2022-10-16T23:10:42;97953.66;;;14.57;100.00
62072;BME280;48031;48.542;13.232;2022-10-16T23:14:44;97950.38;;;14.55;100.00
62072;BME280;48031;48.542;13.232;2022-10-16T23:18:46;97949.25;;;14.51;100.00
62072;BME280;48031;48.542;13.232;2022-10-16T23:22:47;97954.66;;;14.41;100.00
62072;BME280;48031;48.542;13.232;2022-10-16T23:26:49;97955.78;;;14.45;100.00
62072;BME280;48031;48.542;13.232;2022-10-16T23:30:51;97961.47;;;14.38;100.00
62072;BME280;48031;48.542;13.232;2022-10-16T23:34:53;97964.91;;;14.29;100.00
62072;BME280;48031;48.542;13.232;2022-10-16T23:38:54;97962.19;;;14.29;100.00
62072;BME280;48031;48.542;13.232;2022-10-16T23:42:56;97960.06;;;14.36;100.00